sensor_id;sensor_type;location;lat;lon;timestamp;pressure;altitude;pressure_sealevel;temperature;humidity
31011;BME280;26395;53.412;19.598;2023-01-26T00:13:25;101226.05;;;1.43;95.65
31011;BME280;26395;53.412;19.598;2023-01-26T00:28:28;101208.92;;;1.45;96.03
31011;BME280;26395;53.412;19.598;2023-01-26T00:43:32;101193.11;;;1.39;96.26
31011;BME280;26395;53.412;19.598;2023-01-26T00:58:35;101187.08;;;1.33;97.57
31011;BME280;26395;53.412;19.598;2023-01-26T01:13:39;101166.08;;;1.38;98.24
31011;BME280;26395;53.412;19.598;2023-01-26T01:28:43;101144.91;;;1.36;98.97
31011;BME280;26395;53.412;19.598;2023-01-26T01:43:46;101144.09;;;1.50;98.91
31011;BME280;26395;53.412;19.598;2023-01-26T01:58:52;101145.65;;;1.64;98.46
31011;BME280;26395;53.412;19.598;2023-01-26T02:13:57;101122.10;;;1.62;98.73
31011;BME280;26395;53.412;19.598;2023-01-26T02:29:08;101105.98;;;1.64;99.30
31011;BME280;26395;53.412;19.598;2023-01-26T02:44:16;101096.02;;;1.68;99.67
31011;BME280;26395;53.412;19.598;2023-01-26T02:59:19;101077.39;;;1.68;99.81
31011;BME280;26395;53.412;19.598;2023-01-26T03:14:23;101076.71;;;1.77;100.00
31011;BME280;26395;53.412;19.598;2023-01-26T03:29:26;101062.60;;;1.85;99.95
31011;BME280;26395;53.412;19.598;2023-01-26T03:44:32;101039.98;;;1.80;100.00
31011;BME280;26395;53.412;19.598;2023-01-26T03:59:53;101011.20;;;1.75;100.00
31011;BME280;26395;53.412;19.598;2023-01-26T04:14:57;101003.92;;;1.81;100.00
31011;BME280;26395;53.412;19.598;2023-01-26T04:30:19;101005.48;;;1.94;99.99
31011;BME280;26395;53.412;19.598;2023-01-26T04:45:23;101004.05;;;2.04;99.77
31011;BME280;26395;53.412;19.598;2023-01-26T05:00:28;100985.23;;;2.04;99.95
31011;BME280;26395;53.412;19.598;2023-01-26T05:15:34;100972.72;;;2.14;99.95
31011;BME280;26395;53.412;19.598;2023-01-26T05:30:46;100969.44;;;2.19;99.93
31011;BME280;26395;53.412;19.598;2023-01-26T05:45:50;100961.84;;;2.31;99.79
31011;BME280;26395;53.412;19.598;2023-01-26T06:00:55;100969.38;;;2.44;99.55
31011;BME280;26395;53.412;19.598;2023-01-26T06:16:01;100978.29;;;2.50;98.99
31011;BME280;26395;53.412;19.598;2023-01-26T06:31:06;100972.55;;;2.59;98.63
31011;BME280;26395;53.412;19.598;2023-01-26T06:46:10;100965.00;;;2.70;98.58
31011;BME280;26395;53.412;19.598;2023-01-26T07:01:17;100971.05;;;2.77;98.22
31011;BME280;26395;53.412;19.598;2023-01-26T07:16:21;100974.92;;;2.80;98.08
31011;BME280;26395;53.412;19.598;2023-01-26T07:31:25;100965.54;;;2.77;98.21
31011;BME280;26395;53.412;19.598;2023-01-26T07:46:28;100959.30;;;2.89;98.30
31011;BME280;26395;53.412;19.598;2023-01-26T08:01:32;100958.11;;;2.96;98.61
31011;BME280;26395;53.412;19.598;2023-01-26T08:16:35;100964.52;;;3.04;98.65
31011;BME280;26395;53.412;19.598;2023-01-26T08:31:38;100972.25;;;3.05;98.42
31011;BME280;26395;53.412;19.598;2023-01-26T08:46:45;100961.11;;;2.99;98.66
31011;BME280;26395;53.412;19.598;2023-01-26T09:01:48;100946.36;;;3.08;99.11
31011;BME280;26395;53.412;19.598;2023-01-26T09:16:53;100925.38;;;3.10;99.56
31011;BME280;26395;53.412;19.598;2023-01-26T09:31:56;100925.63;;;3.08;99.83
31011;BME280;26395;53.412;19.598;2023-01-26T10:02:24;100914.07;;;3.04;100.00
31011;BME280;26395;53.412;19.598;2023-01-26T10:17:38;100904.63;;;3.10;100.00
31011;BME280;26395;53.412;19.598;2023-01-26T10:32:43;100901.27;;;3.11;100.00
31011;BME280;26395;53.412;19.598;2023-01-26T11:03:17;100881.21;;;3.33;100.00
31011;BME280;26395;53.412;19.598;2023-01-26T11:18:45;100877.14;;;3.35;100.00
31011;BME280;26395;53.412;19.598;2023-01-26T11:49:17;100844.11;;;3.39;100.00
31011;BME280;26395;53.412;19.598;2023-01-26T12:04:25;100828.63;;;3.37;100.00
31011;BME280;26395;53.412;19.598;2023-01-26T12:19:49;100816.31;;;3.41;100.00
31011;BME280;26395;53.412;19.598;2023-01-26T12:34:56;100808.89;;;3.45;100.00
31011;BME280;26395;53.412;19.598;2023-01-26T13:05:23;100806.08;;;3.42;100.00
31011;BME280;26395;53.412;19.598;2023-01-26T13:20:46;100787.95;;;3.24;100.00
31011;BME280;26395;53.412;19.598;2023-01-26T13:35:52;100783.94;;;3.25;100.00
31011;BME280;26395;53.412;19.598;2023-01-26T13:51:01;100780.52;;;3.38;100.00
31011;BME280;26395;53.412;19.598;2023-01-26T14:06:09;100786.13;;;3.37;100.00
31011;BME280;26395;53.412;19.598;2023-01-26T14:21:17;100782.00;;;3.29;100.00
31011;BME280;26395;53.412;19.598;2023-01-26T14:36:22;100791.92;;;3.24;100.00
31011;BME280;26395;53.412;19.598;2023-01-26T14:51:26;100780.41;;;3.23;100.00
31011;BME280;26395;53.412;19.598;2023-01-26T15:06:31;100775.59;;;3.40;100.00
31011;BME280;26395;53.412;19.598;2023-01-26T15:21:36;100774.99;;;3.45;100.00
31011;BME280;26395;53.412;19.598;2023-01-26T15:36:49;100780.77;;;3.43;100.00
31011;BME280;26395;53.412;19.598;2023-01-26T15:51:53;100787.71;;;3.43;100.00
31011;BME280;26395;53.412;19.598;2023-01-26T16:06:56;100787.23;;;3.42;100.00
31011;BME280;26395;53.412;19.598;2023-01-26T16:21:59;100785.38;;;3.48;100.00
31011;BME280;26395;53.412;19.598;2023-01-26T16:37:03;100786.16;;;3.54;100.00
31011;BME280;26395;53.412;19.598;2023-01-26T16:52:07;100792.75;;;3.46;100.00
31011;BME280;26395;53.412;19.598;2023-01-26T17:07:12;100785.11;;;3.39;100.00
31011;BME280;26395;53.412;19.598;2023-01-26T17:22:15;100790.28;;;3.36;100.00
31011;BME280;26395;53.412;19.598;2023-01-26T17:37:20;100794.79;;;3.22;100.00
31011;BME280;26395;53.412;19.598;2023-01-26T17:52:23;100798.55;;;3.34;100.00
31011;BME280;26395;53.412;19.598;2023-01-26T18:07:27;100808.89;;;3.38;100.00
31011;BME280;26395;53.412;19.598;2023-01-26T18:22:30;100810.48;;;3.40;100.00
31011;BME280;26395;53.412;19.598;2023-01-26T18:37:33;100808.96;;;3.43;100.00
31011;BME280;26395;53.412;19.598;2023-01-26T18:52:37;100823.27;;;3.41;100.00
31011;BME280;26395;53.412;19.598;2023-01-26T19:07:42;100825.17;;;3.41;100.00
31011;BME280;26395;53.412;19.598;2023-01-26T19:22:45;100822.84;;;3.32;100.00
31011;BME280;26395;53.412;19.598;2023-01-26T19:37:55;100812.96;;;3.36;100.00
31011;BME280;26395;53.412;19.598;2023-01-26T19:52:58;100788.89;;;3.40;100.00
31011;BME280;26395;53.412;19.598;2023-01-26T20:08:02;100780.01;;;3.38;100.00
31011;BME280;26395;53.412;19.598;2023-01-26T20:23:06;100781.14;;;3.29;100.00
31011;BME280;26395;53.412;19.598;2023-01-26T20:38:09;100783.63;;;3.24;100.00
31011;BME280;26395;53.412;19.598;2023-01-26T20:53:14;100790.98;;;3.29;100.00
31011;BME280;26395;53.412;19.598;2023-01-26T21:08:18;100786.01;;;3.21;100.00
31011;BME280;26395;53.412;19.598;2023-01-26T21:23:21;100794.46;;;3.22;100.00
31011;BME280;26395;53.412;19.598;2023-01-26T21:38:25;100800.60;;;3.16;100.00
31011;BME280;26395;53.412;19.598;2023-01-26T21:53:29;100797.23;;;3.11;100.00
31011;BME280;26395;53.412;19.598;2023-01-26T22:08:33;100802.54;;;3.08;100.00
31011;BME280;26395;53.412;19.598;2023-01-26T22:23:37;100804.14;;;3.22;100.00
31011;BME280;26395;53.412;19.598;2023-01-26T22:38:41;100804.12;;;3.29;100.00
31011;BME280;26395;53.412;19.598;2023-01-26T22:53:46;100794.67;;;3.25;100.00
31011;BME280;26395;53.412;19.598;2023-01-26T23:08:50;100787.95;;;3.17;100.00
31011;BME280;26395;53.412;19.598;2023-01-26T23:23:53;100778.69;;;3.15;100.00
31011;BME280;26395;53.412;19.598;2023-01-26T23:38:56;100771.79;;;3.19;100.00
31011;BME280;26395;53.412;19.598;2023-01-26T23:54:00;100773.89;;;3.14;100.00
